Time;durP1;ratioP1;P1;durP2;ratioP2;P2;SDS_P1;SDS_P2;PMS_P1;PMS_P2;Temp;Humidity;BMP_temperature;BMP_pressure;BME280_temperature;BME280_humidity;BME280_pressure;Samples;Min_cycle;Max_cycle;Signal;HPM_P1;HPM_P2
2023/10/13 00:01:54;;;;;;;11.00;7.67;;;;;;;17.82;60.34;96382.31;4969075;28;21164;-71
2023/10/13 00:04:24;;;;;;;12.47;8.13;;;;;;;17.89;59.60;96380.91;4968869;28;20420;-72
2023/10/13 00:06:56;;;;;;;10.03;7.73;;;;;;;17.80;59.79;96382.38;4968724;28;20531;-71
2023/10/13 00:09:25;;;;;;;14.30;8.00;;;;;;;17.61;60.29;96384.69;4968607;28;20432;-71
2023/10/13 00:11:52;;;;;;;10.40;8.43;;;;;;;17.59;60.55;96375.97;4969147;28;20416;-72
2023/10/13 00:14:18;;;;;;;10.30;7.30;;;;;;;17.59;60.43;96381.28;4968942;28;20912;-72
2023/10/13 00:17:05;;;;;;;15.50;7.73;;;;;;;17.72;60.07;96376.81;4951187;28;20440;-72
2023/10/13 00:19:38;;;;;;;9.20;7.17;;;;;;;17.64;60.31;96374.69;4968390;28;20460;-70
2023/10/13 00:22:10;;;;;;;14.23;7.40;;;;;;;17.57;60.55;96376.09;4935874;28;20509;-70
2023/10/13 00:24:43;;;;;;;12.20;8.20;;;;;;;17.81;59.88;96376.16;4968349;28;20432;-70
2023/10/13 00:27:36;;;;;;;10.50;7.00;;;;;;;17.77;59.65;96374.66;4968465;28;20471;-71
2023/10/13 00:32:56;;;;;;;12.57;8.33;;;;;;;17.35;60.98;96382.94;4968275;28;21141;-71
2023/10/13 00:35:35;;;;;;;11.23;7.10;;;;;;;17.55;60.48;96373.56;4968367;28;20423;-72
2023/10/13 00:38:04;;;;;;;8.93;7.27;;;;;;;17.41;60.54;96379.00;4968034;28;20528;-70
2023/10/13 00:46:07;;;;;;;10.80;6.90;;;;;;;17.14;61.62;96380.00;4968168;28;20421;-72
2023/10/13 00:48:54;;;;;;;15.20;6.87;;;;;;;17.61;59.78;96374.06;4967351;28;20472;-72
2023/10/13 00:51:32;;;;;;;9.90;7.50;;;;;;;17.30;60.17;96370.97;4968321;28;20428;-72
2023/10/13 00:54:02;;;;;;;11.13;6.07;;;;;;;17.58;59.96;96376.97;4968391;28;20421;-72
2023/10/13 00:56:28;;;;;;;17.03;7.73;;;;;;;17.67;59.12;96370.94;4965338;28;20474;-72
2023/10/13 00:58:57;;;;;;;8.73;6.23;;;;;;;17.48;59.86;96377.63;4948865;28;20436;-70
2023/10/13 01:01:29;;;;;;;16.33;6.50;;;;;;;17.61;59.27;96374.06;4948609;29;20418;-72
2023/10/13 01:03:59;;;;;;;10.43;7.30;;;;;;;17.53;59.40;96371.97;4948792;29;20430;-72
2023/10/13 01:06:25;;;;;;;11.80;8.03;;;;;;;17.54;59.41;96374.50;4948093;28;21189;-72
2023/10/13 01:09:14;;;;;;;9.30;6.00;;;;;;;17.62;58.92;96365.13;4948530;28;20915;-72
2023/10/13 01:11:44;;;;;;;10.70;6.77;;;;;;;17.47;59.52;96378.56;4948593;29;20406;-72
2023/10/13 01:14:17;;;;;;;9.20;6.90;;;;;;;17.53;58.80;96372.81;4948510;29;20421;-72
2023/10/13 01:16:45;;;;;;;11.63;6.93;;;;;;;17.65;58.55;96368.44;4948405;29;21044;-72
2023/10/13 01:19:20;;;;;;;17.70;7.60;;;;;;;17.71;58.52;96364.47;4948027;28;20430;-72
2023/10/13 01:21:47;;;;;;;10.10;6.87;;;;;;;17.55;58.99;96352.34;4948409;29;20436;-70
2023/10/13 01:24:18;;;;;;;9.10;7.23;;;;;;;17.56;58.96;96350.53;4948474;29;20501;-70
2023/10/13 01:26:44;;;;;;;10.07;7.20;;;;;;;17.37;59.42;96356.31;4948197;29;20476;-70
2023/10/13 01:29:13;;;;;;;11.23;7.23;;;;;;;17.53;58.67;96346.28;4947879;28;20441;-70
2023/10/13 01:31:45;;;;;;;11.30;7.43;;;;;;;17.59;58.53;96349.44;4948253;29;20229;-72
2023/10/13 01:34:24;;;;;;;9.60;6.77;;;;;;;17.28;59.70;96349.00;4948204;29;20402;-72
2023/10/13 01:36:54;;;;;;;12.63;7.83;;;;;;;17.06;59.97;96352.34;4948315;29;20466;-72
2023/10/13 01:39:28;;;;;;;11.70;7.07;;;;;;;17.21;59.68;96350.41;4948153;28;20429;-72
2023/10/13 01:41:57;;;;;;;13.43;7.20;;;;;;;17.30;59.41;96355.06;4948292;29;20418;-72
2023/10/13 01:44:29;;;;;;;14.13;7.13;;;;;;;17.25;59.07;96351.88;4948196;29;20454;-72
2023/10/13 01:46:54;;;;;;;11.63;7.50;;;;;;;16.99;59.55;96351.94;4947910;29;21027;-72
2023/10/13 01:49:22;;;;;;;9.30;6.30;;;;;;;17.13;59.68;96357.09;4947479;28;20466;-72
2023/10/13 01:51:48;;;;;;;19.50;8.40;;;;;;;16.99;59.90;96364.34;4948157;29;20761;-72
2023/10/13 01:54:15;;;;;;;9.10;6.83;;;;;;;16.73;60.74;96351.06;4948136;29;20438;-72
2023/10/13 01:56:43;;;;;;;12.13;7.20;;;;;;;17.07;60.34;96354.03;4953128;28;20553;-72
2023/10/13 01:59:12;;;;;;;9.27;6.43;;;;;;;16.86;60.44;96354.56;4966993;28;20520;-72
2023/10/13 02:01:40;;;;;;;12.53;6.90;;;;;;;17.01;59.97;96350.03;4967282;28;20919;-72
2023/10/13 02:04:06;;;;;;;12.07;7.53;;;;;;;17.00;59.95;96356.25;4967267;28;20412;-72
2023/10/13 02:06:33;;;;;;;11.10;7.17;;;;;;;16.91;59.84;96352.47;4967612;28;20416;-71
2023/10/13 02:09:10;;;;;;;9.40;6.77;;;;;;;16.99;59.75;96351.09;4967176;28;20955;-71
2023/10/13 02:11:37;;;;;;;9.50;6.00;;;;;;;17.06;59.49;96347.03;4967178;28;20431;-71
2023/10/13 02:14:02;;;;;;;11.30;6.97;;;;;;;17.16;58.48;96352.53;4967265;28;20416;-70
2023/10/13 02:16:28;;;;;;;9.43;5.70;;;;;;;17.12;58.27;96346.59;4967181;28;20424;-70
2023/10/13 02:18:54;;;;;;;13.37;7.60;;;;;;;17.17;58.20;96349.75;4970638;28;20198;-71
2023/10/13 02:21:19;;;;;;;10.17;6.93;;;;;;;17.26;57.90;96341.16;4971012;28;20236;-71
2023/10/13 02:23:45;;;;;;;12.53;6.63;;;;;;;17.14;58.86;96342.03;4970965;28;20196;-72
2023/10/13 02:26:30;;;;;;;8.23;6.10;;;;;;;17.15;58.62;96351.69;4970531;28;20748;-72
2023/10/13 02:28:57;;;;;;;10.23;6.30;;;;;;;17.20;57.84;96348.72;4970521;28;20646;-72
2023/10/13 02:31:24;;;;;;;11.70;6.47;;;;;;;17.14;57.88;96350.81;4975719;28;20494;-72
2023/10/13 02:33:50;;;;;;;8.70;5.87;;;;;;;17.21;57.74;96351.25;4971364;28;20996;-72
2023/10/13 02:36:22;;;;;;;7.53;5.63;;;;;;;17.16;57.89;96341.94;4970703;28;20420;-71
2023/10/13 02:38:50;;;;;;;11.20;6.20;;;;;;;17.21;57.57;96340.63;4970179;28;20562;-71
2023/10/13 02:41:25;;;;;;;6.97;5.40;;;;;;;17.18;57.39;96338.22;4970352;28;20528;-72
2023/10/13 02:43:51;;;;;;;10.90;6.63;;;;;;;17.18;57.54;96346.16;4970244;28;20915;-72
2023/10/13 02:46:17;;;;;;;11.80;6.90;;;;;;;17.14;57.75;96340.22;4970458;28;20417;-72
2023/10/13 02:48:46;;;;;;;9.67;6.80;;;;;;;17.15;58.00;96335.78;4969609;28;20826;-73
2023/10/13 02:51:15;;;;;;;10.00;6.30;;;;;;;17.15;57.87;96335.78;4970763;28;20169;-72
2023/10/13 02:53:48;;;;;;;10.03;7.93;;;;;;;17.05;58.49;96329.44;4970492;28;20413;-72
2023/10/13 02:56:14;;;;;;;16.80;7.20;;;;;;;16.92;58.62;96322.34;4968366;28;20409;-70
2023/10/13 02:58:43;;;;;;;13.80;7.30;;;;;;;16.99;58.65;96324.56;4950506;28;20452;-70
2023/10/13 03:01:18;;;;;;;16.40;7.73;;;;;;;16.98;59.04;96315.75;4951339;29;20178;-70
2023/10/13 03:03:55;;;;;;;15.97;6.80;;;;;;;16.99;58.98;96320.13;4951512;29;20445;-71
2023/10/13 03:06:32;;;;;;;12.67;7.77;;;;;;;16.79;59.23;96321.50;4951377;29;20417;-71
2023/10/13 03:09:00;;;;;;;23.53;7.53;;;;;;;16.78;59.55;96322.44;4950982;28;20461;-71
2023/10/13 03:11:32;;;;;;;13.37;7.90;;;;;;;16.84;59.26;96318.53;4951289;29;20414;-70
2023/10/13 03:13:59;;;;;;;11.27;7.10;;;;;;;16.81;59.33;96316.09;4950729;29;20449;-72
2023/10/13 03:16:24;;;;;;;11.20;6.70;;;;;;;16.73;60.01;96320.09;4950833;29;20852;-70
2023/10/13 03:18:56;;;;;;;8.47;6.53;;;;;;;16.60;60.06;96324.56;4950249;28;20487;-71
2023/10/13 03:21:29;;;;;;;10.77;7.83;;;;;;;16.58;60.42;96326.47;4950472;29;20796;-72
2023/10/13 03:23:56;;;;;;;11.60;6.70;;;;;;;16.61;60.28;96330.72;4950627;29;21061;-72
2023/10/13 03:26:22;;;;;;;9.83;6.57;;;;;;;16.59;59.83;96322.88;4950389;29;20424;-72
2023/10/13 03:28:52;;;;;;;9.00;6.17;;;;;;;16.58;60.42;96318.50;4932271;29;20437;-72
2023/10/13 03:31:19;;;;;;;9.80;6.43;;;;;;;16.46;60.47;96322.00;4950688;29;20637;-72
2023/10/13 03:33:46;;;;;;;11.27;6.60;;;;;;;16.41;60.63;96321.47;4932992;29;21083;-72
2023/10/13 03:36:35;;;;;;;11.70;7.50;;;;;;;16.37;61.10;96312.03;4950265;29;20440;-72
2023/10/13 03:38:58;;;;;;;11.00;6.17;;;;;;;16.28;61.01;96319.69;4949576;28;20536;-72
2023/10/13 03:41:30;;;;;;;12.50;7.50;;;;;;;16.34;60.68;96320.22;4950064;29;20576;-72
2023/10/13 03:44:07;;;;;;;13.83;7.47;;;;;;;16.42;60.98;96328.50;4950066;29;20269;-72
2023/10/13 03:46:33;;;;;;;10.00;7.37;;;;;;;16.41;61.48;96318.84;4949844;29;20425;-72
2023/10/13 03:49:01;;;;;;;10.90;7.03;;;;;;;16.25;61.31;96324.31;4949448;28;20815;-72
2023/10/13 03:51:31;;;;;;;11.20;7.23;;;;;;;16.35;60.80;96316.63;4949724;29;20166;-72
2023/10/13 03:53:56;;;;;;;11.70;7.90;;;;;;;16.37;60.92;96318.22;4949894;29;20928;-72
2023/10/13 03:56:27;;;;;;;14.90;7.90;;;;;;;16.41;61.01;96311.72;4952377;28;20426;-72
2023/10/13 03:59:00;;;;;;;8.07;6.70;;;;;;;16.28;61.05;96300.31;4968650;28;20688;-72
2023/10/13 04:04:12;;;;;;;11.77;7.57;;;;;;;16.10;61.95;96315.63;4962535;28;20425;-70
2023/10/13 04:17:27;;;;;;;11.70;7.40;;;;;;;16.00;62.27;96296.03;4969172;28;20417;-72
2023/10/13 04:28:26;;;;;;;15.77;9.67;;;;;;;16.08;62.21;96309.56;4972538;28;20491;-71
2023/10/13 04:33:51;;;;;;;15.30;8.40;;;;;;;15.93;62.68;96308.81;4968785;28;20428;-70
2023/10/13 04:36:36;;;;;;;10.87;8.10;;;;;;;15.94;62.17;96307.00;4968048;28;20428;-70
2023/10/13 04:41:39;;;;;;;10.97;8.20;;;;;;;15.93;62.31;96305.31;4966811;28;20560;-71
2023/10/13 04:44:55;;;;;;;10.07;7.87;;;;;;;15.92;62.43;96304.50;4967805;28;20495;-70
2023/10/13 04:49:28;;;;;;;13.70;7.97;;;;;;;15.96;62.13;96302.47;4968754;28;20496;-71
2023/10/13 04:52:12;;;;;;;15.53;8.13;;;;;;;15.96;62.38;96305.13;4967756;28;20423;-71
2023/10/13 05:49:40;;;;;;;18.23;8.40;;;;;;;16.77;61.50;96293.38;4930663;28;20461;-72
2023/10/13 05:52:18;;;;;;;20.97;9.10;;;;;;;16.39;60.46;96304.84;4965591;28;21111;-72
2023/10/13 06:30:17;;;;;;;10.07;7.53;;;;;;;19.78;49.85;96291.81;4960480;28;20466;-73
2023/10/13 06:32:42;;;;;;;10.30;7.47;;;;;;;20.04;48.85;96293.13;4964225;28;20676;-72
2023/10/13 06:35:18;;;;;;;14.30;8.90;;;;;;;20.07;48.83;96290.19;4967025;28;20213;-71
2023/10/13 06:37:44;;;;;;;11.93;8.20;;;;;;;19.78;49.50;96283.81;4971199;28;20703;-73
2023/10/13 06:40:25;;;;;;;13.43;7.90;;;;;;;19.99;48.76;96281.19;4965800;28;20468;-74
2023/10/13 06:42:53;;;;;;;15.60;9.03;;;;;;;20.66;47.38;96274.63;4972315;28;20583;-72
2023/10/13 06:45:19;;;;;;;15.40;7.77;;;;;;;21.68;44.98;96280.72;4968747;28;20907;-72
2023/10/13 06:47:44;;;;;;;12.07;7.93;;;;;;;22.32;42.98;96275.81;4971168;28;20492;-72
2023/10/13 06:50:24;;;;;;;13.17;8.00;;;;;;;22.98;41.55;96278.47;4969391;28;20839;-72
2023/10/13 06:52:50;;;;;;;11.93;8.07;;;;;;;23.31;40.98;96278.06;4970033;28;20216;-71
2023/10/13 06:55:27;;;;;;;8.93;7.47;;;;;;;23.99;39.55;96272.28;4970229;28;20973;-71
2023/10/13 06:58:02;;;;;;;13.20;8.83;;;;;;;24.27;38.82;96281.06;4972145;28;20424;-71
2023/10/13 07:00:38;;;;;;;17.37;10.47;;;;;;;23.83;39.81;96286.34;4970266;28;20614;-71
2023/10/13 07:03:17;;;;;;;13.13;8.63;;;;;;;24.27;38.87;96283.75;4967146;28;20444;-71
2023/10/13 07:05:43;;;;;;;10.27;7.97;;;;;;;25.16;37.10;96277.28;4968422;28;20440;-70
2023/10/13 07:08:14;;;;;;;13.20;7.83;;;;;;;25.46;36.28;96281.28;4951490;28;20519;-71
2023/10/13 07:11:05;;;;;;;18.33;7.97;;;;;;;25.65;35.71;96282.84;4963761;28;20211;-73
2023/10/13 07:13:31;;;;;;;15.50;9.20;;;;;;;25.94;35.33;96278.94;4964192;28;20495;-71
2023/10/13 07:16:05;;;;;;;13.73;10.30;;;;;;;26.26;34.48;96282.66;4965775;28;20759;-70
2023/10/13 07:18:36;;;;;;;13.97;9.20;;;;;;;26.51;33.71;96278.94;4968241;28;20531;-70
2023/10/13 07:21:10;;;;;;;12.20;8.30;;;;;;;27.20;32.60;96278.50;4964533;28;20450;-70
2023/10/13 07:23:38;;;;;;;10.70;7.90;;;;;;;26.93;33.35;96285.13;4964272;28;20450;-70
2023/10/13 07:26:08;;;;;;;12.63;8.77;;;;;;;27.26;32.52;96285.06;4969525;28;20417;-70
2023/10/13 07:28:36;;;;;;;14.27;9.13;;;;;;;27.54;32.09;96288.13;4966880;28;20464;-70
2023/10/13 07:33:31;;;;;;;10.27;7.60;;;;;;;27.42;32.14;96296.59;4963534;28;20486;-71
2023/10/13 07:36:10;;;;;;;12.93;7.67;;;;;;;27.49;32.20;96291.34;4967899;28;20519;-70
2023/10/13 07:38:37;;;;;;;13.07;8.57;;;;;;;27.15;32.81;96287.09;4962051;28;20543;-69
2023/10/13 07:41:09;;;;;;;9.30;7.30;;;;;;;27.06;32.78;96293.50;4964945;28;21015;-69
2023/10/13 07:43:37;;;;;;;10.23;7.17;;;;;;;27.03;32.86;96288.47;4966917;28;20760;-70
2023/10/13 07:46:09;;;;;;;12.13;6.87;;;;;;;26.85;33.37;96287.84;4973559;28;20500;-70
2023/10/13 07:48:40;;;;;;;13.90;7.90;;;;;;;26.69;33.51;96296.78;4965813;28;21058;-71
2023/10/13 07:51:16;;;;;;;11.57;7.30;;;;;;;26.74;33.30;96287.19;4969735;28;20416;-71
2023/10/13 07:53:43;;;;;;;12.23;7.50;;;;;;;26.50;33.70;96297.94;4968982;28;20412;-70
2023/10/13 07:56:11;;;;;;;9.73;7.00;;;;;;;25.67;35.11;96291.59;4968716;28;20419;-70
2023/10/13 08:01:24;;;;;;;11.67;7.70;;;;;;;25.86;34.75;96295.88;4971425;28;20432;-72
2023/10/13 08:04:04;;;;;;;12.10;6.70;;;;;;;26.03;34.40;96282.44;4969059;28;20423;-70
2023/10/13 08:06:29;;;;;;;14.37;6.43;;;;;;;25.69;35.18;96296.81;4968327;28;20496;-69
2023/10/13 08:08:57;;;;;;;12.10;7.63;;;;;;;25.51;35.42;96287.03;4961624;28;21030;-69
2023/10/13 08:14:11;;;;;;;11.43;6.43;;;;;;;25.68;34.99;96287.09;4965294;28;20441;-69
2023/10/13 08:16:52;;;;;;;11.53;6.13;;;;;;;25.59;34.84;96282.69;4961879;28;20534;-69
2023/10/13 08:19:26;;;;;;;7.87;5.57;;;;;;;25.84;34.25;96289.78;4963365;28;20927;-69
2023/10/13 08:22:23;;;;;;;9.20;6.17;;;;;;;26.15;33.94;96284.66;4965265;28;20466;-70
2023/10/13 08:45:52;;;;;;;9.90;5.30;;;;;;;26.19;32.87;96266.34;4963582;28;20456;-71
2023/10/13 08:53:45;;;;;;;19.20;6.80;;;;;;;25.50;33.26;96260.31;4953436;28;20441;-70
2023/10/13 08:56:15;;;;;;;9.50;4.83;;;;;;;25.66;33.48;96259.53;4963303;28;20452;-70
2023/10/13 09:04:22;;;;;;;15.50;5.50;;;;;;;26.01;34.86;96260.25;4959503;28;20439;-69
2023/10/13 09:07:37;;;;;;;11.30;5.70;;;;;;;26.24;34.34;96253.22;4965533;28;20434;-70
2023/10/13 09:09:59;;;;;;;11.47;5.70;;;;;;;26.35;34.66;96254.72;4955806;28;20213;-70
2023/10/13 09:15:05;;;;;;;10.40;5.33;;;;;;;25.35;35.32;96241.31;4963932;28;20441;-73
2023/10/13 09:17:34;;;;;;;9.63;4.50;;;;;;;25.26;36.48;96245.81;4966882;28;20497;-72
2023/10/13 09:20:23;;;;;;;13.00;4.63;;;;;;;25.04;35.06;96244.53;4964007;28;20463;-73
2023/10/13 09:23:24;;;;;;;9.73;4.53;;;;;;;25.05;38.24;96256.09;4963480;28;20536;-73
2023/10/13 09:26:08;;;;;;;26.27;5.90;;;;;;;25.66;35.92;96240.72;4963319;28;20437;-72
2023/10/13 09:28:28;;;;;;;8.17;5.33;;;;;;;25.06;35.60;96250.56;4961889;28;20507;-72
2023/10/13 09:30:58;;;;;;;19.80;5.60;;;;;;;25.44;36.91;96240.34;4948829;28;20417;-74
2023/10/13 09:33:45;;;;;;;9.83;4.53;;;;;;;25.76;33.75;96230.66;4965625;28;20499;-75
2023/10/13 09:36:12;;;;;;;10.83;5.27;;;;;;;25.37;35.77;96228.56;4965339;28;20843;-75
2023/10/13 09:38:41;;;;;;;16.67;5.50;;;;;;;25.87;36.43;96224.97;4948207;28;20433;-73
2023/10/13 09:41:26;;;;;;;15.57;5.13;;;;;;;26.00;35.24;96223.63;4964620;28;20446;-74
2023/10/13 09:43:52;;;;;;;12.67;4.30;;;;;;;26.08;34.63;96221.81;4960961;28;20447;-73
2023/10/13 09:46:26;;;;;;;10.53;4.57;;;;;;;26.10;34.38;96224.31;4963738;28;20930;-75
2023/10/13 09:49:14;;;;;;;13.10;5.00;;;;;;;26.18;34.22;96213.56;4964848;28;20503;-73
2023/10/13 09:51:44;;;;;;;11.97;5.50;;;;;;;26.16;33.35;96215.56;4965086;28;21067;-71
2023/10/13 09:54:30;;;;;;;9.10;4.80;;;;;;;26.15;33.63;96213.88;4946701;28;20512;-74
2023/10/13 09:57:09;;;;;;;8.40;4.97;;;;;;;26.04;34.02;96219.63;4963517;28;20428;-73
2023/10/13 09:59:52;;;;;;;9.17;4.50;;;;;;;25.89;34.84;96217.59;4964305;28;20539;-72
2023/10/13 10:02:27;;;;;;;10.47;4.60;;;;;;;25.89;33.51;96216.72;4960216;28;20440;-73
2023/10/13 10:05:12;;;;;;;7.27;4.40;;;;;;;25.94;34.47;96217.09;4961955;28;20429;-75
2023/10/13 10:07:39;;;;;;;8.60;4.40;;;;;;;25.59;33.87;96204.75;4963336;28;20497;-74
2023/10/13 10:10:08;;;;;;;10.70;4.97;;;;;;;25.85;33.88;96199.25;4965593;28;20461;-74
2023/10/13 10:12:47;;;;;;;6.63;4.20;;;;;;;26.01;34.03;96204.66;4964441;28;21077;-74
2023/10/13 10:15:35;;;;;;;11.37;4.70;;;;;;;26.06;33.73;96201.47;4964662;28;20445;-74
2023/10/13 10:18:01;;;;;;;9.07;4.20;;;;;;;25.88;34.13;96199.78;4959687;28;20508;-73
2023/10/13 10:20:33;;;;;;;7.60;4.17;;;;;;;25.71;33.59;96195.38;4965017;28;20463;-73
2023/10/13 10:23:00;;;;;;;8.63;4.17;;;;;;;25.84;35.11;96192.16;4963020;28;20463;-73
2023/10/13 10:25:34;;;;;;;8.50;4.73;;;;;;;26.04;34.22;96187.34;4963025;28;21246;-74
2023/10/13 10:28:05;;;;;;;9.00;4.30;;;;;;;26.23;33.60;96192.38;4946185;28;20472;-73
2023/10/13 10:30:33;;;;;;;8.97;4.30;;;;;;;26.11;33.80;96178.44;4963196;28;20535;-72
2023/10/13 10:33:01;;;;;;;13.73;5.43;;;;;;;26.10;32.98;96171.38;4964372;28;20523;-73
2023/10/13 10:35:32;;;;;;;19.90;5.20;;;;;;;26.29;34.25;96174.69;4967861;28;20849;-74
2023/10/13 10:40:58;;;;;;;15.67;4.70;;;;;;;25.82;34.00;96173.53;4968105;28;20524;-74
2023/10/13 10:43:27;;;;;;;8.33;4.50;;;;;;;25.88;34.10;96177.44;4968536;28;20519;-73
2023/10/13 10:46:05;;;;;;;7.67;4.00;;;;;;;25.69;34.73;96170.50;4969098;28;20511;-76
2023/10/13 10:48:42;;;;;;;8.97;4.47;;;;;;;25.43;35.56;96168.78;4953084;28;20468;-79
2023/10/13 10:51:31;;;;;;;21.40;5.00;;;;;;;25.39;34.53;96162.06;4970213;28;21203;-73
2023/10/13 10:54:13;;;;;;;11.37;4.73;;;;;;;25.75;34.24;96157.25;4964378;28;20548;-74
2023/10/13 10:56:38;;;;;;;10.33;4.43;;;;;;;26.02;33.69;96151.72;4953710;28;20444;-73
2023/10/13 10:59:19;;;;;;;6.57;3.73;;;;;;;26.05;34.18;96146.81;4968327;28;20456;-72
2023/10/13 11:01:51;;;;;;;6.27;3.93;;;;;;;25.53;33.74;96145.28;4966021;28;20228;-72
2023/10/13 11:06:54;;;;;;;10.80;3.90;;;;;;;25.33;33.76;96134.03;4969058;28;20631;-73
2023/10/13 11:12:26;;;;;;;12.63;4.73;;;;;;;25.37;33.99;96120.25;4969913;28;20433;-75
2023/10/13 11:15:21;;;;;;;9.33;3.97;;;;;;;25.45;34.17;96112.22;4955006;28;20602;-74
2023/10/13 11:17:51;;;;;;;9.50;3.43;;;;;;;25.74;33.13;96104.47;4969970;28;20520;-73
2023/10/13 11:20:25;;;;;;;7.80;4.10;;;;;;;25.91;32.59;96102.63;4965176;28;20463;-74
2023/10/13 11:22:52;;;;;;;13.83;4.37;;;;;;;25.93;32.94;96105.16;4963250;28;20496;-75
2023/10/13 11:25:34;;;;;;;8.80;4.10;;;;;;;25.90;32.46;96092.91;4951021;28;20436;-72
2023/10/13 11:28:27;;;;;;;10.90;4.53;;;;;;;26.00;32.60;96094.56;4963563;28;20468;-73
2023/10/13 11:30:58;;;;;;;7.90;3.93;;;;;;;26.06;32.31;96089.34;4967087;28;20456;-75
2023/10/13 11:33:26;;;;;;;10.80;4.37;;;;;;;26.23;32.15;96090.16;4967066;28;20507;-77
2023/10/13 11:38:27;;;;;;;5.90;3.60;;;;;;;26.26;32.28;96073.66;4963125;28;20792;-76
2023/10/13 11:49:24;;;;;;;10.07;3.60;;;;;;;26.40;30.41;96069.41;4969615;28;20483;-69
2023/10/13 11:51:51;;;;;;;9.63;3.30;;;;;;;26.41;30.72;96071.09;4964968;28;20837;-68
2023/10/13 11:54:21;;;;;;;6.90;3.60;;;;;;;26.31;30.92;96057.00;4968425;28;20535;-70
2023/10/13 11:56:47;;;;;;;11.53;3.67;;;;;;;26.23;30.97;96051.66;4968538;28;20861;-70
2023/10/13 11:59:20;;;;;;;7.00;3.83;;;;;;;26.24;29.47;96056.03;4961880;28;20460;-70
2023/10/13 12:04:51;;;;;;;4.47;3.70;;;;;;;26.14;29.35;96045.47;4963817;28;21345;-70
2023/10/13 12:07:21;;;;;;;12.07;3.63;;;;;;;26.17;29.71;96037.03;4962074;28;20468;-69
2023/10/13 12:12:20;;;;;;;6.67;3.67;;;;;;;26.14;29.10;96042.78;4959397;28;21114;-70
2023/10/13 12:14:52;;;;;;;10.20;4.13;;;;;;;26.19;29.49;96029.63;4963703;28;20435;-70
2023/10/13 12:17:24;;;;;;;9.90;3.40;;;;;;;26.31;29.28;96032.78;4967138;28;20442;-71
2023/10/13 12:19:52;;;;;;;11.83;4.97;;;;;;;26.35;29.26;96023.38;4949002;28;20993;-70
2023/10/13 12:22:25;;;;;;;8.70;4.27;;;;;;;26.34;29.29;96009.09;4964085;28;20460;-70
2023/10/13 12:24:53;;;;;;;10.33;4.10;;;;;;;26.31;28.67;96014.78;4966131;28;20508;-69
2023/10/13 12:27:19;;;;;;;11.33;4.03;;;;;;;26.39;29.07;96012.09;4962287;28;20460;-69
2023/10/13 12:29:56;;;;;;;7.53;4.20;;;;;;;26.43;28.94;96011.72;4964050;28;20508;-71
2023/10/13 12:32:30;;;;;;;8.13;5.00;;;;;;;26.45;28.42;96001.63;4964553;28;20293;-70
2023/10/13 12:54:04;;;;;;;7.80;3.93;;;;;;;26.24;27.27;95973.47;4962559;28;20520;-70
2023/10/13 12:56:30;;;;;;;5.10;3.40;;;;;;;26.20;27.34;95966.78;4960974;28;20805;-71
2023/10/13 12:58:55;;;;;;;6.43;3.73;;;;;;;26.18;26.98;95958.03;4959644;28;20460;-69
2023/10/13 13:01:22;;;;;;;4.90;3.50;;;;;;;26.19;27.46;95952.47;4963393;28;20229;-70
2023/10/13 13:03:49;;;;;;;7.00;3.43;;;;;;;26.14;26.53;95956.72;4963458;28;20275;-69
2023/10/13 13:06:24;;;;;;;4.17;3.30;;;;;;;26.13;26.74;95949.66;4962504;28;21210;-70
2023/10/13 13:08:53;;;;;;;7.00;5.67;;;;;;;26.09;27.39;95943.78;4947567;28;20468;-70
2023/10/13 13:11:19;;;;;;;6.80;3.40;;;;;;;26.06;26.95;95949.53;4964414;28;20468;-70
2023/10/13 13:13:47;;;;;;;4.57;3.63;;;;;;;26.06;27.06;95954.06;4962974;28;20432;-70
2023/10/13 13:16:18;;;;;;;5.50;3.50;;;;;;;25.98;26.84;95947.72;4947799;28;20192;-71
2023/10/13 13:18:47;;;;;;;6.77;4.23;;;;;;;25.98;27.08;95944.16;4947621;28;20440;-70
2023/10/13 13:21:19;;;;;;;6.90;5.00;;;;;;;25.91;27.03;95935.13;4962986;28;20543;-71
2023/10/13 13:23:48;;;;;;;7.87;4.20;;;;;;;25.91;27.33;95937.81;4965631;28;20436;-70
2023/10/13 13:26:17;;;;;;;6.17;3.90;;;;;;;25.83;27.75;95927.91;4965453;28;20440;-69
2023/10/13 13:28:50;;;;;;;11.70;4.23;;;;;;;25.94;27.41;95924.88;4963489;28;20468;-70
2023/10/13 13:31:25;;;;;;;6.50;3.80;;;;;;;25.89;26.95;95926.38;4964341;28;20444;-70
2023/10/13 13:33:50;;;;;;;7.97;3.23;;;;;;;25.84;26.71;95921.50;4963975;28;20507;-70
2023/10/13 13:36:16;;;;;;;5.27;4.10;;;;;;;25.80;27.32;95920.19;4966135;28;20440;-70
2023/10/13 13:38:45;;;;;;;6.00;3.77;;;;;;;25.75;26.82;95920.72;4965517;28;20184;-70
2023/10/13 13:41:17;;;;;;;7.30;3.70;;;;;;;25.77;27.10;95915.16;4965366;28;20557;-71
2023/10/13 13:46:16;;;;;;;6.67;4.10;;;;;;;25.71;27.04;95910.47;4964787;28;21083;-69
2023/10/13 13:48:42;;;;;;;11.17;3.60;;;;;;;25.70;26.93;95906.09;4965386;28;20467;-69
2023/10/13 13:51:15;;;;;;;7.10;3.77;;;;;;;25.64;26.93;95902.25;4965451;28;20437;-71
2023/10/13 13:53:50;;;;;;;6.50;2.90;;;;;;;25.62;27.53;95906.13;4960055;28;20276;-71
2023/10/13 13:56:16;;;;;;;7.80;4.07;;;;;;;25.61;27.41;95897.25;4946453;28;20438;-71
2023/10/13 13:58:49;;;;;;;7.23;3.33;;;;;;;25.63;27.57;95894.38;4960501;28;20437;-71
2023/10/13 14:01:16;;;;;;;5.83;3.53;;;;;;;25.62;27.45;95898.09;4948283;28;20255;-71
2023/10/13 14:03:46;;;;;;;7.80;3.63;;;;;;;25.61;27.19;95888.31;4946950;28;20498;-72
2023/10/13 14:06:20;;;;;;;4.70;3.90;;;;;;;25.60;27.56;95883.97;4965763;28;20451;-72
2023/10/13 14:08:48;;;;;;;7.63;3.90;;;;;;;25.59;27.65;95883.16;4963781;28;20779;-69
2023/10/13 14:14:03;;;;;;;7.13;3.90;;;;;;;25.58;27.57;95873.38;4967450;28;20452;-71
2023/10/13 14:16:29;;;;;;;5.90;2.80;;;;;;;25.53;27.51;95871.22;4969473;28;20934;-71
2023/10/13 14:18:55;;;;;;;7.20;4.03;;;;;;;25.61;27.37;95867.69;4968886;28;20526;-71
2023/10/13 14:21:24;;;;;;;9.23;3.77;;;;;;;25.57;27.40;95871.72;4968587;28;20231;-71
2023/10/13 14:23:53;;;;;;;5.70;3.30;;;;;;;25.57;27.50;95860.97;4969731;28;20209;-71
2023/10/13 14:26:21;;;;;;;4.80;3.67;;;;;;;25.55;28.22;95849.56;4951028;28;20491;-71
2023/10/13 14:29:08;;;;;;;7.87;3.47;;;;;;;25.55;27.99;95855.78;4968223;28;20480;-71
2023/10/13 14:31:37;;;;;;;6.53;4.10;;;;;;;25.58;28.11;95851.06;4967178;28;20599;-70
2023/10/13 14:34:03;;;;;;;8.00;3.73;;;;;;;25.53;28.44;95856.97;4968001;28;20444;-70
2023/10/13 14:36:28;;;;;;;6.90;3.23;;;;;;;25.54;28.25;95848.72;4966963;28;20851;-69
2023/10/13 14:38:55;;;;;;;6.70;4.07;;;;;;;25.53;28.43;95847.03;4967256;28;20734;-69
2023/10/13 14:41:22;;;;;;;15.63;4.47;;;;;;;25.48;28.44;95841.34;4973988;28;20251;-71
2023/10/13 14:43:47;;;;;;;8.10;3.80;;;;;;;25.45;28.74;95841.72;4970009;28;20433;-70
2023/10/13 14:46:16;;;;;;;7.53;3.63;;;;;;;25.44;28.89;95839.19;4967995;28;21281;-71
2023/10/13 14:48:43;;;;;;;10.87;3.70;;;;;;;25.43;29.15;95835.66;4966054;28;20214;-70
2023/10/13 14:51:18;;;;;;;6.13;3.57;;;;;;;25.45;29.15;95833.66;4965401;28;20494;-69
2023/10/13 14:53:44;;;;;;;7.67;4.10;;;;;;;25.44;28.76;95829.31;4967214;28;20472;-69
2023/10/13 14:56:14;;;;;;;8.47;3.80;;;;;;;25.46;29.47;95826.44;4966401;28;20468;-69
2023/10/13 14:58:43;;;;;;;6.93;3.63;;;;;;;25.44;29.50;95829.31;4962467;28;20515;-70
2023/10/13 15:01:17;;;;;;;5.80;3.20;;;;;;;25.40;29.40;95822.59;4969064;28;20764;-70
2023/10/13 15:03:47;;;;;;;7.70;4.00;;;;;;;25.38;29.65;95826.47;4971966;28;20424;-70
2023/10/13 15:06:29;;;;;;;8.93;3.70;;;;;;;25.37;30.13;95812.22;4970171;28;20966;-71
2023/10/13 15:08:56;;;;;;;9.90;4.17;;;;;;;25.38;29.93;95818.41;4968465;28;20461;-71
2023/10/13 15:11:26;;;;;;;6.50;4.50;;;;;;;25.32;29.97;95811.88;4968856;28;20472;-70
2023/10/13 15:13:55;;;;;;;7.03;3.80;;;;;;;25.30;29.89;95820.13;4951204;28;20491;-71
2023/10/13 15:16:23;;;;;;;4.90;3.57;;;;;;;25.25;29.47;95806.38;4969117;28;20417;-71
2023/10/13 15:18:51;;;;;;;9.73;4.13;;;;;;;25.23;29.64;95805.72;4968601;28;20515;-71
2023/10/13 15:21:26;;;;;;;7.80;3.93;;;;;;;25.24;29.91;95801.16;4966701;28;20828;-70
2023/10/13 15:23:53;;;;;;;7.53;4.73;;;;;;;25.22;30.13;95800.50;4963054;28;20966;-69
2023/10/13 15:26:23;;;;;;;6.77;5.43;;;;;;;25.20;30.38;95797.16;4960495;28;20558;-69
2023/10/13 15:28:48;;;;;;;7.13;4.20;;;;;;;25.15;30.37;95806.50;4965184;28;21062;-70
2023/10/13 15:31:25;;;;;;;6.43;4.00;;;;;;;25.07;30.26;95800.34;4968884;28;20499;-70